createdAt,value
2019-02-09T00:02:09.022Z,1.20
2019-02-09T00:04:39.505Z,1.30
2019-02-09T00:07:09.955Z,1.30
2019-02-09T00:09:40.462Z,1.47
2019-02-09T00:12:10.940Z,1.20
2019-02-09T00:14:41.406Z,1.50
2019-02-09T00:17:11.899Z,1.67
2019-02-09T00:19:42.380Z,1.00
2019-02-09T00:22:12.842Z,1.72
2019-02-09T00:24:43.372Z,1.55
2019-02-09T00:27:13.857Z,1.70
2019-02-09T00:29:46.264Z,1.60
2019-02-09T00:32:16.520Z,2.87
2019-02-09T00:34:46.987Z,1.22
2019-02-09T00:37:17.455Z,1.62
2019-02-09T00:39:47.949Z,2.10
2019-02-09T00:42:18.457Z,1.90
2019-02-09T00:44:48.904Z,1.40
2019-02-09T00:47:19.389Z,1.37
2019-02-09T00:49:49.863Z,1.67
2019-02-09T00:52:20.326Z,1.15
2019-02-09T00:54:50.887Z,1.40
2019-02-09T00:57:21.363Z,1.73
2019-02-09T00:59:54.183Z,1.40
2019-02-09T01:02:24.022Z,1.70
2019-02-09T01:04:54.466Z,1.80
2019-02-09T01:07:25.045Z,1.82
2019-02-09T01:09:55.552Z,1.70
2019-02-09T01:12:26.024Z,1.20
2019-02-09T01:14:56.528Z,1.77
2019-02-09T01:17:26.993Z,1.50
2019-02-09T01:19:57.464Z,1.10
2019-02-09T01:22:27.927Z,1.32
2019-02-09T01:24:58.389Z,1.62
2019-02-09T01:27:28.882Z,1.20
2019-02-09T01:30:02.421Z,2.10
2019-02-09T01:32:31.555Z,2.07
2019-02-09T01:35:01.999Z,1.40
2019-02-09T01:37:32.479Z,1.80
2019-02-09T01:40:02.967Z,2.13
2019-02-09T01:42:33.431Z,1.70
2019-02-09T01:45:04.835Z,1.72
2019-02-09T01:47:35.321Z,1.77
2019-02-09T01:50:09.004Z,1.65
2019-02-09T01:52:39.467Z,1.50
2019-02-09T01:55:11.112Z,1.70
2019-02-09T01:57:41.600Z,1.30
2019-02-09T02:00:19.011Z,1.50
2019-02-09T02:02:49.981Z,1.10
2019-02-09T02:05:22.064Z,1.20
2019-02-09T02:07:52.932Z,1.20
2019-02-09T02:10:42.545Z,1.80
2019-02-09T02:13:13.223Z,1.20
2019-02-09T02:15:43.933Z,1.57
2019-02-09T02:18:14.509Z,1.10
2019-02-09T02:20:45.019Z,1.32
2019-02-09T02:23:15.501Z,1.20
2019-02-09T02:25:45.982Z,1.85
2019-02-09T02:28:16.468Z,1.25
2019-02-09T02:30:46.919Z,1.40
2019-02-09T02:33:17.395Z,1.55
2019-02-09T02:35:47.887Z,1.50
2019-02-09T02:38:18.355Z,1.27
2019-02-09T02:40:48.831Z,1.82
2019-02-09T02:43:19.306Z,1.60
2019-02-09T02:45:49.807Z,1.70
2019-02-09T02:48:20.287Z,1.50
2019-02-09T02:50:50.794Z,1.50
2019-02-09T02:53:21.263Z,1.60
2019-02-09T02:55:51.741Z,1.02
2019-02-09T02:58:22.253Z,1.52
2019-02-09T03:00:52.744Z,1.60
2019-02-09T03:03:23.238Z,1.40
2019-02-09T03:05:53.734Z,1.67
2019-02-09T03:08:24.206Z,1.30
2019-02-09T03:10:54.693Z,1.30
2019-02-09T03:13:25.162Z,1.67
2019-02-09T03:15:55.714Z,1.80
2019-02-09T03:18:26.183Z,1.50
2019-02-09T03:20:56.709Z,1.80
2019-02-09T03:23:27.161Z,1.60
2019-02-09T03:25:57.627Z,1.50
2019-02-09T03:28:28.116Z,1.40
2019-02-09T03:30:58.578Z,1.60
2019-02-09T03:33:29.100Z,1.47
2019-02-09T03:35:59.633Z,1.37
2019-02-09T03:38:30.081Z,1.20
2019-02-09T03:41:00.537Z,1.50
2019-02-09T03:43:31.030Z,1.90
2019-02-09T03:46:01.511Z,1.65
2019-02-09T03:48:31.973Z,1.67
2019-02-09T03:51:02.494Z,1.98
2019-02-09T03:53:32.990Z,1.52
2019-02-09T03:56:03.453Z,1.40
2019-02-09T03:58:34.071Z,1.90
2019-02-09T04:01:04.960Z,1.35
2019-02-09T04:03:35.628Z,1.62
2019-02-09T04:06:06.117Z,1.60
2019-02-09T04:08:36.576Z,2.20
2019-02-09T04:11:07.048Z,1.55
2019-02-09T04:13:37.554Z,1.60
2019-02-09T04:16:08.055Z,1.40
2019-02-09T04:18:38.466Z,1.40
2019-02-09T04:21:08.982Z,2.08
2019-02-09T04:23:39.434Z,1.65
2019-02-09T04:26:09.893Z,1.70
2019-02-09T04:28:40.376Z,1.50
2019-02-09T04:31:10.834Z,1.70
2019-02-09T04:33:41.299Z,1.80
2019-02-09T04:36:11.781Z,1.70
2019-02-09T04:38:42.251Z,1.67
2019-02-09T04:41:12.700Z,1.50
2019-02-09T04:43:43.293Z,1.95
2019-02-09T04:46:13.783Z,1.87
2019-02-09T04:48:44.230Z,1.20
2019-02-09T04:51:14.774Z,1.70
2019-02-09T04:53:45.177Z,1.70
2019-02-09T04:56:15.727Z,1.90
2019-02-09T04:58:46.182Z,1.50
2019-02-09T05:01:16.638Z,1.60
2019-02-09T05:03:47.135Z,1.77
2019-02-09T05:06:17.576Z,1.70
2019-02-09T05:08:48.084Z,1.75
2019-02-09T05:11:18.568Z,1.67
2019-02-09T05:13:49.017Z,1.80
2019-02-09T05:16:19.463Z,2.00
2019-02-09T05:18:49.941Z,2.40
2019-02-09T05:21:20.421Z,1.65
2019-02-09T05:23:50.864Z,2.37
2019-02-09T05:26:21.344Z,1.30
2019-02-09T05:28:51.800Z,1.90
2019-02-09T05:31:23.451Z,1.92
2019-02-09T05:33:54.198Z,1.92
2019-02-09T05:36:24.650Z,1.90
2019-02-09T05:38:55.097Z,2.10
2019-02-09T05:41:25.587Z,1.80
2019-02-09T05:43:56.185Z,2.00
2019-02-09T05:46:26.692Z,1.92
2019-02-09T05:48:57.338Z,1.80
2019-02-09T05:51:30.291Z,2.08
2019-02-09T05:53:59.987Z,2.40
2019-02-09T05:56:30.515Z,1.50
2019-02-09T05:59:00.979Z,2.00
2019-02-09T06:01:32.549Z,1.50
2019-02-09T06:04:03.246Z,2.12
2019-02-09T06:06:33.687Z,2.02
2019-02-09T06:09:05.704Z,2.45
2019-02-09T06:11:36.185Z,2.30
2019-02-09T06:14:06.970Z,2.00
2019-02-09T06:16:37.398Z,2.50
2019-02-09T06:19:07.948Z,2.70
2019-02-09T06:21:38.404Z,2.30
2019-02-09T06:24:08.855Z,2.00
2019-02-09T06:26:39.364Z,2.30
2019-02-09T06:29:09.807Z,2.00
2019-02-09T06:31:41.266Z,2.35
2019-02-09T06:34:11.930Z,2.80
2019-02-09T06:36:42.404Z,3.08
2019-02-09T06:39:12.867Z,3.23
2019-02-09T06:41:43.344Z,3.20
2019-02-09T06:44:14.186Z,2.90
2019-02-09T06:46:44.650Z,3.00
2019-02-09T06:49:15.125Z,2.95
2019-02-09T06:51:45.576Z,2.87
2019-02-09T06:54:16.187Z,2.72
2019-02-09T06:56:46.606Z,2.70
2019-02-09T06:59:17.070Z,1.80
2019-02-09T07:01:48.810Z,1.90
2019-02-09T07:04:19.957Z,1.45
2019-02-09T07:06:50.421Z,1.90
2019-02-09T07:09:20.911Z,1.50
2019-02-09T07:11:51.595Z,1.37
2019-02-09T07:14:22.040Z,1.30
2019-02-09T07:16:52.495Z,1.50
2019-02-09T07:19:22.978Z,1.65
2019-02-09T07:21:53.432Z,1.20
2019-02-09T07:24:23.887Z,1.70
2019-02-09T07:26:54.344Z,1.40
2019-02-09T07:29:24.797Z,1.00
2019-02-09T07:31:56.664Z,1.10
2019-02-09T07:34:27.643Z,1.50
2019-02-09T07:36:58.222Z,1.60
2019-02-09T07:39:28.704Z,1.70
2019-02-09T07:41:59.314Z,1.90
2019-02-09T07:44:29.880Z,2.00
2019-02-09T07:47:00.382Z,2.40
2019-02-09T07:49:30.815Z,2.20
2019-02-09T07:52:01.305Z,2.50
2019-02-09T07:54:31.776Z,3.22
2019-02-09T07:57:02.221Z,1.90
2019-02-09T07:59:32.772Z,2.62
2019-02-09T08:02:04.727Z,2.10
2019-02-09T08:04:35.524Z,2.80
2019-02-09T08:07:06.095Z,2.67
2019-02-09T08:09:36.651Z,2.60
2019-02-09T08:12:07.802Z,2.50
2019-02-09T08:14:38.264Z,2.20
2019-02-09T08:17:08.860Z,2.33
2019-02-09T08:19:39.365Z,2.50
2019-02-09T08:22:09.862Z,1.85
2019-02-09T08:24:40.326Z,2.20
2019-02-09T08:27:10.891Z,2.20
2019-02-09T08:29:41.365Z,2.50
2019-02-09T08:32:13.031Z,2.83
2019-02-09T08:34:43.694Z,1.90
2019-02-09T08:37:14.158Z,1.77
2019-02-09T08:39:44.645Z,2.25
2019-02-09T08:42:15.115Z,1.55
2019-02-09T08:44:45.694Z,1.80
2019-02-09T08:47:16.126Z,1.40
2019-02-09T08:49:46.668Z,1.52
2019-02-09T08:52:17.130Z,1.50
2019-02-09T08:54:47.593Z,1.80
2019-02-09T08:57:18.106Z,1.20
2019-02-09T08:59:48.582Z,2.03
2019-02-09T09:02:20.701Z,1.37
2019-02-09T09:04:51.434Z,1.60
2019-02-09T09:07:21.895Z,1.70
2019-02-09T09:09:52.421Z,1.50
2019-02-09T09:12:22.910Z,1.95
2019-02-09T09:14:53.377Z,1.70
2019-02-09T09:17:23.828Z,1.72
2019-02-09T09:19:54.309Z,1.62
2019-02-09T09:22:26.585Z,2.37
2019-02-09T09:24:57.097Z,1.85
2019-02-09T09:27:27.639Z,2.00
2019-02-09T09:29:58.095Z,1.42
2019-02-09T09:32:28.998Z,1.72
2019-02-09T09:34:59.486Z,1.52
2019-02-09T09:37:29.992Z,1.70
2019-02-09T09:40:00.509Z,1.30
2019-02-09T09:42:31.027Z,1.27
2019-02-09T09:45:01.483Z,1.90
2019-02-09T09:47:31.943Z,1.70
2019-02-09T09:50:02.558Z,1.67
2019-02-09T10:12:26.255Z,1.90
2019-02-09T10:14:56.990Z,1.70
2019-02-09T10:17:27.525Z,1.60
2019-02-09T10:19:58.251Z,2.35
2019-02-09T10:22:28.751Z,1.20
2019-02-09T10:24:59.299Z,2.05
2019-02-09T10:27:29.842Z,1.82
2019-02-09T10:30:00.414Z,1.62
2019-02-09T10:32:30.848Z,1.60
2019-02-09T10:35:01.458Z,1.70
2019-02-09T10:37:32.105Z,1.30
2019-02-09T10:40:02.760Z,1.55
2019-02-09T10:42:33.493Z,1.40
2019-02-09T10:45:04.191Z,2.72
2019-02-09T10:47:34.760Z,1.75
2019-02-09T10:50:07.159Z,2.52
2019-02-09T10:52:37.799Z,1.60
2019-02-09T10:55:09.871Z,2.20
2019-02-09T10:57:41.666Z,1.70
2019-02-09T11:00:20.622Z,1.42
2019-02-09T11:02:52.310Z,2.00
2019-02-09T11:05:22.987Z,2.10
2019-02-09T11:07:53.686Z,1.95
2019-02-09T11:10:25.423Z,1.72
2019-02-09T11:12:56.138Z,1.90
2019-02-09T11:15:26.740Z,1.55
2019-02-09T11:17:57.381Z,1.75
2019-02-09T11:20:27.983Z,2.22
2019-02-09T11:22:58.484Z,1.52
2019-02-09T11:25:30.184Z,1.70
2019-02-09T11:28:00.706Z,1.70
2019-02-09T11:30:31.961Z,1.80
2019-02-09T11:33:02.737Z,1.87
2019-02-09T11:35:33.312Z,1.90
2019-02-09T11:38:04.887Z,2.60
2019-02-09T11:40:35.476Z,1.95
2019-02-09T11:43:07.358Z,2.55
2019-02-09T11:45:38.750Z,1.87
2019-02-09T11:48:09.447Z,2.40
2019-02-09T11:50:40.042Z,1.63
2019-02-09T11:53:10.631Z,2.02
2019-02-09T11:55:41.244Z,1.53
2019-02-09T11:58:11.819Z,2.10
2019-02-09T12:00:49.756Z,2.52
2019-02-09T12:03:20.268Z,2.35
2019-02-09T12:05:50.854Z,1.85
2019-02-09T12:08:21.542Z,1.60
2019-02-09T12:10:52.095Z,2.17
2019-02-09T12:13:22.659Z,2.05
2019-02-09T12:15:53.234Z,3.12
2019-02-09T12:18:23.803Z,2.02
2019-02-09T12:20:54.329Z,2.17
2019-02-09T12:23:24.886Z,2.30
2019-02-09T12:25:55.373Z,1.90
2019-02-09T12:28:25.924Z,2.25
2019-02-09T12:30:56.489Z,3.00
2019-02-09T12:33:26.986Z,2.70
2019-02-09T12:35:57.489Z,3.10
2019-02-09T12:38:28.076Z,2.60
2019-02-09T12:40:58.634Z,1.80
2019-02-09T12:43:29.138Z,2.43
2019-02-09T12:45:59.696Z,2.17
2019-02-09T12:48:30.234Z,1.60
2019-02-09T12:51:00.772Z,3.30
2019-02-09T12:53:31.380Z,2.30
2019-02-09T12:56:01.884Z,2.05
2019-02-09T12:58:32.454Z,2.00
2019-02-09T13:01:02.975Z,2.00
2019-02-09T13:03:33.534Z,2.72
2019-02-09T13:06:04.059Z,2.30
2019-02-09T13:08:34.644Z,2.15
2019-02-09T13:11:05.228Z,2.35
2019-02-09T13:13:35.757Z,2.20
2019-02-09T13:16:06.888Z,2.22
2019-02-09T13:18:37.458Z,2.10
2019-02-09T13:21:08.164Z,1.73
2019-02-09T13:23:38.757Z,1.87
2019-02-09T13:26:09.313Z,1.65
2019-02-09T13:28:39.837Z,1.40
2019-02-09T13:31:10.381Z,2.40
2019-02-09T13:33:40.922Z,1.90
2019-02-09T13:36:11.490Z,1.98
2019-02-09T13:38:42.027Z,2.02
2019-02-09T13:41:12.526Z,1.70
2019-02-09T13:43:43.055Z,2.00
2019-02-09T13:46:13.651Z,1.80
2019-02-09T13:48:44.135Z,1.60
2019-02-09T13:51:14.669Z,1.80
2019-02-09T13:53:45.202Z,2.00
2019-02-09T13:56:15.710Z,2.00
2019-02-09T13:58:46.257Z,1.95
2019-02-09T14:01:16.754Z,1.90
2019-02-09T14:03:47.384Z,1.80
2019-02-09T14:06:17.931Z,1.60
2019-02-09T14:08:48.563Z,1.40
2019-02-09T14:11:19.088Z,2.80
2019-02-09T14:13:49.588Z,1.50
2019-02-09T14:16:20.101Z,1.90
2019-02-09T14:18:50.627Z,2.20
2019-02-09T14:21:21.134Z,2.10
2019-02-09T14:23:51.707Z,1.40
2019-02-09T14:26:22.309Z,1.77
2019-02-09T14:28:52.820Z,2.45
2019-02-09T14:31:23.286Z,1.60
2019-02-09T14:33:55.358Z,1.77
2019-02-09T14:36:26.057Z,2.27
2019-02-09T14:38:56.602Z,2.33
2019-02-09T14:41:27.188Z,1.85
2019-02-09T14:43:57.687Z,1.50
2019-02-09T14:46:28.324Z,1.87
2019-02-09T14:48:58.830Z,1.97
2019-02-09T14:51:29.342Z,2.52
2019-02-09T14:53:59.933Z,1.95
2019-02-09T14:56:30.546Z,1.60
2019-02-09T14:59:01.040Z,1.82
2019-02-09T15:01:31.640Z,1.60
2019-02-09T15:04:03.024Z,1.40
2019-02-09T15:06:33.895Z,1.60
2019-02-09T15:09:06.044Z,1.53
2019-02-09T15:11:36.569Z,1.50
2019-02-09T15:14:07.736Z,2.10
2019-02-09T15:16:55.025Z,1.90
2019-02-09T15:19:32.611Z,2.10
2019-02-09T15:22:03.129Z,1.90
2019-02-09T15:24:33.664Z,1.90
2019-02-09T15:27:04.168Z,2.27
2019-02-09T15:29:34.761Z,1.87
2019-02-09T15:32:05.569Z,2.77
2019-02-09T15:34:36.110Z,2.42
2019-02-09T15:37:06.810Z,2.33
2019-02-09T15:39:37.317Z,2.27
2019-02-09T15:42:07.939Z,2.50
2019-02-09T15:44:38.488Z,2.58
2019-02-09T15:47:09.002Z,1.82
2019-02-09T15:49:39.840Z,2.10
2019-02-09T15:52:10.355Z,1.90
2019-02-09T15:54:40.884Z,2.80
2019-02-09T15:57:11.419Z,2.92
2019-02-09T15:59:42.004Z,3.37
2019-02-09T16:02:12.577Z,1.98
2019-02-09T16:04:43.062Z,3.90
2019-02-09T16:07:13.637Z,2.80
2019-02-09T16:09:44.208Z,3.08
2019-02-09T16:12:14.758Z,2.70
2019-02-09T16:14:45.365Z,2.80
2019-02-09T16:17:15.835Z,1.70
2019-02-09T16:19:46.371Z,2.72
2019-02-09T16:22:16.934Z,2.13
2019-02-09T16:24:47.437Z,2.40
2019-02-09T16:27:18.141Z,1.90
2019-02-09T16:29:48.703Z,2.70
2019-02-09T16:32:19.266Z,2.53
2019-02-09T16:34:51.303Z,3.20
2019-02-09T16:37:22.108Z,2.95
2019-02-09T16:39:52.780Z,2.55
2019-02-09T16:42:23.393Z,1.90
2019-02-09T16:44:53.916Z,2.25
2019-02-09T16:47:24.481Z,2.30
2019-02-09T16:49:54.978Z,2.10
2019-02-09T16:52:25.861Z,2.35
2019-02-09T16:54:56.485Z,2.50
2019-02-09T16:57:26.999Z,2.45
2019-02-09T16:59:57.534Z,1.60
2019-02-09T17:02:28.148Z,2.62
2019-02-09T17:04:59.779Z,1.87
2019-02-09T17:07:30.469Z,2.40
2019-02-09T17:10:01.024Z,2.27
2019-02-09T17:12:31.511Z,2.70
2019-02-09T17:15:02.052Z,2.02
2019-02-09T17:17:32.574Z,2.72
2019-02-09T17:20:03.089Z,2.40
2019-02-09T17:22:33.690Z,2.42
2019-02-09T17:25:04.605Z,3.10
2019-02-09T17:27:35.139Z,2.70
2019-02-09T17:30:15.861Z,2.62
2019-02-09T17:32:46.435Z,2.80
2019-02-09T17:35:16.979Z,2.17
2019-02-09T17:37:47.650Z,2.30
2019-02-09T17:40:21.452Z,2.87
2019-02-09T17:42:53.403Z,3.70
2019-02-09T17:45:28.222Z,2.33
2019-02-09T17:47:58.749Z,2.37
2019-02-09T17:50:29.384Z,3.10
2019-02-09T17:53:00.317Z,2.65
2019-02-09T17:55:30.996Z,2.27
2019-02-09T17:58:01.646Z,2.58
2019-02-09T18:00:54.318Z,3.08
2019-02-09T18:03:24.800Z,2.00
2019-02-09T18:05:55.341Z,2.20
2019-02-09T18:08:25.881Z,2.85
2019-02-09T18:10:56.466Z,3.00
2019-02-09T18:13:26.992Z,2.70
2019-02-09T18:15:57.672Z,3.50
2019-02-09T18:18:28.213Z,2.70
2019-02-09T18:20:58.751Z,3.40
2019-02-09T18:23:29.336Z,3.40
2019-02-09T18:26:00.117Z,3.10
2019-02-09T18:28:30.679Z,3.27
2019-02-09T18:31:01.240Z,2.80
2019-02-09T18:33:31.735Z,3.37
2019-02-09T18:36:02.248Z,2.40
2019-02-09T18:38:32.862Z,2.80
2019-02-09T18:41:03.335Z,3.62
2019-02-09T18:43:33.867Z,2.70
2019-02-09T18:46:04.715Z,3.00
2019-02-09T18:48:36.282Z,2.85
2019-02-09T18:51:06.874Z,2.50
2019-02-09T18:53:37.472Z,1.80
2019-02-09T18:56:07.962Z,2.85
2019-02-09T18:58:38.528Z,2.37
2019-02-09T19:01:09.240Z,4.22
2019-02-09T19:03:39.805Z,2.85
2019-02-09T19:06:10.416Z,3.77
2019-02-09T19:08:40.983Z,2.80
2019-02-09T19:11:11.475Z,2.80
2019-02-09T19:13:41.998Z,2.12
2019-02-09T19:16:12.534Z,2.80
2019-02-09T19:18:43.079Z,2.27
2019-02-09T19:21:16.819Z,2.40
2019-02-09T19:23:47.358Z,2.22
2019-02-09T19:26:17.918Z,2.30
2019-02-09T19:28:48.488Z,2.40
2019-02-09T19:31:19.104Z,3.20
2019-02-09T19:33:49.998Z,2.50
2019-02-09T19:36:20.591Z,3.17
2019-02-09T19:38:51.061Z,2.30
2019-02-09T19:41:21.619Z,2.85
2019-02-09T19:43:52.230Z,2.45
2019-02-09T19:46:25.619Z,2.40
2019-02-09T19:48:56.143Z,2.85
2019-02-09T19:51:26.700Z,3.05
2019-02-09T19:53:57.268Z,2.10
2019-02-09T19:56:27.833Z,3.17
2019-02-09T19:58:58.573Z,2.20
2019-02-09T20:01:29.006Z,2.80
2019-02-09T20:03:59.511Z,2.45
2019-02-09T20:06:30.021Z,2.50
2019-02-09T20:09:00.526Z,3.12
2019-02-09T20:11:31.057Z,3.27
2019-02-09T20:14:01.584Z,3.33
2019-02-09T20:16:32.123Z,2.45
2019-02-09T20:19:02.673Z,2.72
2019-02-09T20:21:33.192Z,2.30
2019-02-09T20:24:03.720Z,2.40
2019-02-09T20:26:34.302Z,3.08
2019-02-09T20:29:05.005Z,2.47
2019-02-09T20:31:35.551Z,2.70
2019-02-09T20:34:06.156Z,2.52
2019-02-09T20:36:37.619Z,2.98
2019-02-09T20:39:10.315Z,2.60
2019-02-09T20:41:41.100Z,2.55
2019-02-09T20:44:11.695Z,2.75
2019-02-09T20:46:42.164Z,2.25
2019-02-09T20:49:12.711Z,2.67
2019-02-09T20:51:43.340Z,4.00
2019-02-09T20:54:13.908Z,2.65
2019-02-09T20:56:44.389Z,3.00
2019-02-09T20:59:14.966Z,2.25
2019-02-09T21:01:45.439Z,2.52
2019-02-09T21:04:15.978Z,2.05
2019-02-09T21:06:46.544Z,2.45
2019-02-09T21:09:17.007Z,2.62
2019-02-09T21:11:47.523Z,2.95
2019-02-09T21:14:18.030Z,2.83
2019-02-09T21:16:51.707Z,3.00
2019-02-09T21:19:21.010Z,2.70
2019-02-09T21:21:51.605Z,2.85
2019-02-09T21:24:22.165Z,3.40
2019-02-09T21:26:52.835Z,2.75
2019-02-09T21:29:23.422Z,2.65
2019-02-09T21:31:53.869Z,3.25
2019-02-09T21:34:24.453Z,1.67
2019-02-09T21:36:55.340Z,2.27
2019-02-09T21:39:33.495Z,2.02
2019-02-09T21:41:59.063Z,2.35
2019-02-09T21:44:29.679Z,2.47
2019-02-09T21:47:00.248Z,3.22
2019-02-09T21:49:30.848Z,1.90
2019-02-09T21:52:01.364Z,2.92
2019-02-09T22:05:08.719Z,2.72
2019-02-09T22:07:39.260Z,4.00
2019-02-09T22:10:12.570Z,2.77
2019-02-09T22:12:44.086Z,2.52
2019-02-09T22:15:14.990Z,2.25
2019-02-09T22:17:45.564Z,2.70
2019-02-09T22:20:17.575Z,1.92
2019-02-09T22:22:48.768Z,1.92
2019-02-09T22:25:21.684Z,2.27
2019-02-09T22:27:55.269Z,2.40
2019-02-09T22:30:28.254Z,2.70
2019-02-09T22:32:59.716Z,1.75
2019-02-09T22:35:30.973Z,1.80
2019-02-09T22:38:01.612Z,2.22
2019-02-09T22:40:34.372Z,2.22
2019-02-09T22:43:06.147Z,1.77
2019-02-09T22:45:37.022Z,2.45
2019-02-09T22:48:09.660Z,2.90
2019-02-09T22:50:43.876Z,2.98
2019-02-09T22:53:14.531Z,2.05
2019-02-09T22:55:45.645Z,3.08
2019-02-09T22:58:16.200Z,2.17
2019-02-09T23:01:37.050Z,2.22
2019-02-09T23:05:00.552Z,2.15
2019-02-09T23:07:34.156Z,2.15
2019-02-09T23:10:10.593Z,2.80
2019-02-09T23:12:48.312Z,2.20
2019-02-09T23:15:13.377Z,3.70
2019-02-09T23:17:43.944Z,2.25
2019-02-09T23:20:14.536Z,2.42
2019-02-09T23:22:45.025Z,2.30
2019-02-09T23:25:15.561Z,3.08
2019-02-09T23:27:46.081Z,2.70
2019-02-09T23:30:16.647Z,2.60
2019-02-09T23:32:47.110Z,2.40
2019-02-09T23:35:17.656Z,2.85
2019-02-09T23:37:48.187Z,2.70
2019-02-09T23:40:18.821Z,2.65
2019-02-09T23:42:49.320Z,2.60
2019-02-09T23:45:19.920Z,2.60
2019-02-09T23:47:50.437Z,2.90
2019-02-09T23:50:21.005Z,2.85
2019-02-09T23:52:51.528Z,3.25
2019-02-09T23:55:22.115Z,3.40
2019-02-09T23:57:52.683Z,3.00
